sensor_id;sensor_type;location;lat;lon;timestamp;P1;durP1;ratioP1;P2;durP2;ratioP2
11962;SDS011;62678;52.130;5.584;2023-07-22T00:00:31;20.90;;;13.13;;
11962;SDS011;62678;52.130;5.584;2023-07-22T00:02:58;24.38;;;13.88;;
11962;SDS011;62678;52.130;5.584;2023-07-22T00:05:25;20.35;;;13.95;;
11962;SDS011;62678;52.130;5.584;2023-07-22T00:07:53;22.67;;;13.27;;
11962;SDS011;62678;52.130;5.584;2023-07-22T00:10:20;21.73;;;14.15;;
11962;SDS011;62678;52.130;5.584;2023-07-22T00:12:48;21.50;;;14.18;;
11962;SDS011;62678;52.130;5.584;2023-07-22T00:15:16;24.35;;;14.68;;
11962;SDS011;62678;52.130;5.584;2023-07-22T00:17:43;21.20;;;12.90;;
11962;SDS011;62678;52.130;5.584;2023-07-22T00:20:11;19.73;;;13.27;;
11962;SDS011;62678;52.130;5.584;2023-07-22T00:22:39;22.10;;;14.00;;
11962;SDS011;62678;52.130;5.584;2023-07-22T00:25:07;25.83;;;14.60;;
11962;SDS011;62678;52.130;5.584;2023-07-22T00:27:36;21.52;;;13.73;;
11962;SDS011;62678;52.130;5.584;2023-07-22T00:30:06;20.58;;;13.43;;
11962;SDS011;62678;52.130;5.584;2023-07-22T00:32:33;21.20;;;13.88;;
11962;SDS011;62678;52.130;5.584;2023-07-22T00:35:02;22.88;;;14.70;;
11962;SDS011;62678;52.130;5.584;2023-07-22T00:37:29;22.13;;;14.48;;
11962;SDS011;62678;52.130;5.584;2023-07-22T00:39:57;25.85;;;14.88;;
11962;SDS011;62678;52.130;5.584;2023-07-22T00:42:24;25.70;;;14.93;;
11962;SDS011;62678;52.130;5.584;2023-07-22T00:44:51;24.27;;;15.20;;
11962;SDS011;62678;52.130;5.584;2023-07-22T00:47:20;25.25;;;15.57;;
11962;SDS011;62678;52.130;5.584;2023-07-22T00:49:48;26.15;;;16.25;;
11962;SDS011;62678;52.130;5.584;2023-07-22T00:52:18;26.17;;;15.35;;
11962;SDS011;62678;52.130;5.584;2023-07-22T00:54:46;29.35;;;16.08;;
11962;SDS011;62678;52.130;5.584;2023-07-22T00:57:14;23.65;;;15.07;;
11962;SDS011;62678;52.130;5.584;2023-07-22T00:59:42;24.02;;;15.13;;
11962;SDS011;62678;52.130;5.584;2023-07-22T01:02:10;23.60;;;15.52;;
11962;SDS011;62678;52.130;5.584;2023-07-22T01:04:38;24.45;;;15.85;;
11962;SDS011;62678;52.130;5.584;2023-07-22T01:07:06;24.98;;;14.88;;
11962;SDS011;62678;52.130;5.584;2023-07-22T01:09:35;26.00;;;15.88;;
11962;SDS011;62678;52.130;5.584;2023-07-22T01:12:03;25.00;;;15.65;;
11962;SDS011;62678;52.130;5.584;2023-07-22T01:14:31;30.27;;;15.60;;
11962;SDS011;62678;52.130;5.584;2023-07-22T01:16:59;27.98;;;16.88;;
11962;SDS011;62678;52.130;5.584;2023-07-22T01:19:28;25.00;;;15.40;;
11962;SDS011;62678;52.130;5.584;2023-07-22T01:21:56;26.50;;;16.15;;
11962;SDS011;62678;52.130;5.584;2023-07-22T01:24:27;25.30;;;16.50;;
11962;SDS011;62678;52.130;5.584;2023-07-22T01:26:54;25.42;;;15.73;;
11962;SDS011;62678;52.130;5.584;2023-07-22T01:29:22;26.92;;;16.50;;
11962;SDS011;62678;52.130;5.584;2023-07-22T01:31:50;25.17;;;15.82;;
11962;SDS011;62678;52.130;5.584;2023-07-22T01:34:18;26.08;;;16.13;;
11962;SDS011;62678;52.130;5.584;2023-07-22T01:36:46;28.65;;;16.77;;
11962;SDS011;62678;52.130;5.584;2023-07-22T01:39:13;28.02;;;17.05;;
11962;SDS011;62678;52.130;5.584;2023-07-22T01:41:42;25.02;;;16.63;;
11962;SDS011;62678;52.130;5.584;2023-07-22T01:44:10;25.13;;;16.65;;
11962;SDS011;62678;52.130;5.584;2023-07-22T01:46:37;27.85;;;17.65;;
11962;SDS011;62678;52.130;5.584;2023-07-22T01:49:04;28.08;;;17.38;;
11962;SDS011;62678;52.130;5.584;2023-07-22T01:51:33;31.42;;;18.85;;
11962;SDS011;62678;52.130;5.584;2023-07-22T01:54:02;30.58;;;18.85;;
11962;SDS011;62678;52.130;5.584;2023-07-22T01:56:29;30.50;;;18.55;;
11962;SDS011;62678;52.130;5.584;2023-07-22T01:58:59;36.58;;;19.55;;
11962;SDS011;62678;52.130;5.584;2023-07-22T02:01:26;34.45;;;20.13;;
11962;SDS011;62678;52.130;5.584;2023-07-22T02:03:53;33.47;;;19.60;;
11962;SDS011;62678;52.130;5.584;2023-07-22T02:06:20;34.72;;;19.17;;
11962;SDS011;62678;52.130;5.584;2023-07-22T02:08:47;32.85;;;20.38;;
11962;SDS011;62678;52.130;5.584;2023-07-22T02:11:16;32.35;;;20.23;;
11962;SDS011;62678;52.130;5.584;2023-07-22T02:13:43;33.13;;;20.13;;
11962;SDS011;62678;52.130;5.584;2023-07-22T02:16:12;32.03;;;20.38;;
11962;SDS011;62678;52.130;5.584;2023-07-22T02:18:39;38.40;;;21.38;;
11962;SDS011;62678;52.130;5.584;2023-07-22T02:21:07;33.17;;;20.38;;
11962;SDS011;62678;52.130;5.584;2023-07-22T02:23:33;38.65;;;22.40;;
11962;SDS011;62678;52.130;5.584;2023-07-22T02:26:00;37.95;;;22.88;;
11962;SDS011;62678;52.130;5.584;2023-07-22T02:28:27;39.53;;;22.33;;
11962;SDS011;62678;52.130;5.584;2023-07-22T02:30:55;39.05;;;22.48;;
11962;SDS011;62678;52.130;5.584;2023-07-22T02:33:23;37.47;;;22.08;;
11962;SDS011;62678;52.130;5.584;2023-07-22T02:35:50;36.40;;;21.92;;
11962;SDS011;62678;52.130;5.584;2023-07-22T02:38:17;41.70;;;23.27;;
11962;SDS011;62678;52.130;5.584;2023-07-22T02:40:44;40.33;;;24.15;;
11962;SDS011;62678;52.130;5.584;2023-07-22T02:43:11;41.47;;;23.52;;
11962;SDS011;62678;52.130;5.584;2023-07-22T02:45:38;43.20;;;23.83;;
11962;SDS011;62678;52.130;5.584;2023-07-22T02:48:05;43.50;;;24.27;;
11962;SDS011;62678;52.130;5.584;2023-07-22T02:50:34;45.45;;;24.85;;
11962;SDS011;62678;52.130;5.584;2023-07-22T02:53:01;40.97;;;23.10;;
11962;SDS011;62678;52.130;5.584;2023-07-22T02:55:29;42.38;;;24.00;;
11962;SDS011;62678;52.130;5.584;2023-07-22T02:57:56;48.85;;;24.35;;
11962;SDS011;62678;52.130;5.584;2023-07-22T03:00:23;40.25;;;23.15;;
11962;SDS011;62678;52.130;5.584;2023-07-22T03:02:50;43.35;;;22.20;;
11962;SDS011;62678;52.130;5.584;2023-07-22T03:05:18;41.75;;;23.25;;
11962;SDS011;62678;52.130;5.584;2023-07-22T03:07:47;42.78;;;23.17;;
11962;SDS011;62678;52.130;5.584;2023-07-22T03:10:15;38.97;;;22.27;;
11962;SDS011;62678;52.130;5.584;2023-07-22T03:12:42;39.80;;;22.05;;
11962;SDS011;62678;52.130;5.584;2023-07-22T03:15:09;39.60;;;22.55;;
11962;SDS011;62678;52.130;5.584;2023-07-22T03:17:38;42.10;;;22.58;;
11962;SDS011;62678;52.130;5.584;2023-07-22T03:20:07;42.83;;;23.00;;
11962;SDS011;62678;52.130;5.584;2023-07-22T03:22:39;42.33;;;23.10;;
11962;SDS011;62678;52.130;5.584;2023-07-22T03:25:08;43.75;;;22.55;;
11962;SDS011;62678;52.130;5.584;2023-07-22T03:27:35;45.05;;;23.13;;
11962;SDS011;62678;52.130;5.584;2023-07-22T03:30:03;47.50;;;23.95;;
11962;SDS011;62678;52.130;5.584;2023-07-22T03:32:32;42.55;;;23.13;;
11962;SDS011;62678;52.130;5.584;2023-07-22T03:34:59;40.13;;;21.83;;
11962;SDS011;62678;52.130;5.584;2023-07-22T03:37:28;44.20;;;23.20;;
11962;SDS011;62678;52.130;5.584;2023-07-22T03:39:55;43.22;;;22.00;;
11962;SDS011;62678;52.130;5.584;2023-07-22T03:42:23;45.42;;;23.17;;
11962;SDS011;62678;52.130;5.584;2023-07-22T03:44:51;40.30;;;22.65;;
11962;SDS011;62678;52.130;5.584;2023-07-22T03:47:18;41.53;;;21.35;;
11962;SDS011;62678;52.130;5.584;2023-07-22T03:49:44;44.22;;;23.40;;
11962;SDS011;62678;52.130;5.584;2023-07-22T03:52:12;38.70;;;21.83;;
11962;SDS011;62678;52.130;5.584;2023-07-22T03:54:43;41.90;;;21.85;;
11962;SDS011;62678;52.130;5.584;2023-07-22T03:57:10;43.38;;;22.98;;
11962;SDS011;62678;52.130;5.584;2023-07-22T03:59:40;40.78;;;22.52;;
11962;SDS011;62678;52.130;5.584;2023-07-22T04:02:07;40.67;;;22.48;;
11962;SDS011;62678;52.130;5.584;2023-07-22T04:04:34;43.05;;;23.27;;
11962;SDS011;62678;52.130;5.584;2023-07-22T04:07:01;42.67;;;23.10;;
11962;SDS011;62678;52.130;5.584;2023-07-22T04:09:28;42.90;;;22.23;;
11962;SDS011;62678;52.130;5.584;2023-07-22T04:11:55;46.33;;;23.60;;
11962;SDS011;62678;52.130;5.584;2023-07-22T04:14:22;39.85;;;21.50;;
11962;SDS011;62678;52.130;5.584;2023-07-22T04:16:51;45.95;;;24.08;;
11962;SDS011;62678;52.130;5.584;2023-07-22T04:19:18;44.38;;;22.10;;
11962;SDS011;62678;52.130;5.584;2023-07-22T04:21:45;41.30;;;22.02;;
11962;SDS011;62678;52.130;5.584;2023-07-22T04:24:12;43.70;;;22.58;;
11962;SDS011;62678;52.130;5.584;2023-07-22T04:26:40;36.90;;;21.50;;
11962;SDS011;62678;52.130;5.584;2023-07-22T04:29:08;38.25;;;21.05;;
11962;SDS011;62678;52.130;5.584;2023-07-22T04:31:37;37.78;;;21.55;;
11962;SDS011;62678;52.130;5.584;2023-07-22T04:34:05;39.03;;;21.38;;
11962;SDS011;62678;52.130;5.584;2023-07-22T04:36:33;37.22;;;20.50;;
11962;SDS011;62678;52.130;5.584;2023-07-22T04:39:01;35.00;;;20.38;;
11962;SDS011;62678;52.130;5.584;2023-07-22T04:41:30;36.95;;;21.67;;
11962;SDS011;62678;52.130;5.584;2023-07-22T04:43:57;35.63;;;20.45;;
11962;SDS011;62678;52.130;5.584;2023-07-22T04:46:24;36.13;;;20.48;;
11962;SDS011;62678;52.130;5.584;2023-07-22T04:48:53;36.17;;;20.50;;
11962;SDS011;62678;52.130;5.584;2023-07-22T04:51:21;37.70;;;20.77;;
11962;SDS011;62678;52.130;5.584;2023-07-22T04:53:48;39.20;;;21.67;;
11962;SDS011;62678;52.130;5.584;2023-07-22T04:56:15;35.25;;;21.27;;
11962;SDS011;62678;52.130;5.584;2023-07-22T04:58:42;40.05;;;20.98;;
11962;SDS011;62678;52.130;5.584;2023-07-22T05:01:10;36.60;;;20.73;;
11962;SDS011;62678;52.130;5.584;2023-07-22T05:03:37;37.85;;;20.63;;
11962;SDS011;62678;52.130;5.584;2023-07-22T05:06:05;39.33;;;19.80;;
11962;SDS011;62678;52.130;5.584;2023-07-22T05:08:35;36.28;;;20.45;;
11962;SDS011;62678;52.130;5.584;2023-07-22T05:11:03;36.63;;;19.60;;
11962;SDS011;62678;52.130;5.584;2023-07-22T05:13:30;35.92;;;19.83;;
11962;SDS011;62678;52.130;5.584;2023-07-22T05:15:57;38.20;;;20.08;;
11962;SDS011;62678;52.130;5.584;2023-07-22T05:18:24;38.63;;;21.27;;
11962;SDS011;62678;52.130;5.584;2023-07-22T05:20:52;38.47;;;20.38;;
11962;SDS011;62678;52.130;5.584;2023-07-22T05:23:19;42.20;;;22.23;;
11962;SDS011;62678;52.130;5.584;2023-07-22T05:25:51;35.22;;;20.73;;
11962;SDS011;62678;52.130;5.584;2023-07-22T05:28:19;38.10;;;20.70;;
11962;SDS011;62678;52.130;5.584;2023-07-22T05:30:46;36.05;;;20.33;;
11962;SDS011;62678;52.130;5.584;2023-07-22T05:33:13;37.58;;;21.05;;
11962;SDS011;62678;52.130;5.584;2023-07-22T05:35:40;37.60;;;21.08;;
11962;SDS011;62678;52.130;5.584;2023-07-22T05:38:07;37.60;;;19.38;;
11962;SDS011;62678;52.130;5.584;2023-07-22T05:40:34;38.08;;;21.15;;
11962;SDS011;62678;52.130;5.584;2023-07-22T05:43:03;37.20;;;20.50;;
11962;SDS011;62678;52.130;5.584;2023-07-22T05:45:30;39.05;;;20.73;;
11962;SDS011;62678;52.130;5.584;2023-07-22T05:47:57;37.22;;;20.02;;
11962;SDS011;62678;52.130;5.584;2023-07-22T05:50:24;37.70;;;20.60;;
11962;SDS011;62678;52.130;5.584;2023-07-22T05:52:51;33.55;;;20.10;;
11962;SDS011;62678;52.130;5.584;2023-07-22T05:55:18;38.60;;;21.15;;
11962;SDS011;62678;52.130;5.584;2023-07-22T05:57:45;39.53;;;21.15;;
11962;SDS011;62678;52.130;5.584;2023-07-22T06:00:14;36.50;;;19.55;;
11962;SDS011;62678;52.130;5.584;2023-07-22T06:02:42;38.78;;;21.70;;
11962;SDS011;62678;52.130;5.584;2023-07-22T06:05:09;40.55;;;21.30;;
11962;SDS011;62678;52.130;5.584;2023-07-22T06:07:37;40.80;;;21.80;;
11962;SDS011;62678;52.130;5.584;2023-07-22T06:10:04;38.67;;;21.33;;
11962;SDS011;62678;52.130;5.584;2023-07-22T06:12:33;37.58;;;21.17;;
11962;SDS011;62678;52.130;5.584;2023-07-22T06:15:00;36.08;;;21.17;;
11962;SDS011;62678;52.130;5.584;2023-07-22T06:17:29;36.17;;;21.02;;
11962;SDS011;62678;52.130;5.584;2023-07-22T06:19:55;33.47;;;20.52;;
11962;SDS011;62678;52.130;5.584;2023-07-22T06:22:22;34.15;;;20.98;;
11962;SDS011;62678;52.130;5.584;2023-07-22T06:24:49;35.90;;;20.50;;
11962;SDS011;62678;52.130;5.584;2023-07-22T06:27:16;34.92;;;21.77;;
11962;SDS011;62678;52.130;5.584;2023-07-22T06:29:43;34.63;;;20.70;;
11962;SDS011;62678;52.130;5.584;2023-07-22T06:32:10;35.70;;;20.52;;
11962;SDS011;62678;52.130;5.584;2023-07-22T06:34:38;37.55;;;21.23;;
11962;SDS011;62678;52.130;5.584;2023-07-22T06:37:05;35.97;;;21.00;;
11962;SDS011;62678;52.130;5.584;2023-07-22T06:39:32;35.55;;;21.13;;
11962;SDS011;62678;52.130;5.584;2023-07-22T06:41:59;35.58;;;21.13;;
11962;SDS011;62678;52.130;5.584;2023-07-22T06:44:26;36.30;;;20.77;;
11962;SDS011;62678;52.130;5.584;2023-07-22T06:46:53;38.25;;;20.67;;
11962;SDS011;62678;52.130;5.584;2023-07-22T06:49:20;40.38;;;22.60;;
11962;SDS011;62678;52.130;5.584;2023-07-22T06:51:48;32.92;;;21.42;;
11962;SDS011;62678;52.130;5.584;2023-07-22T06:54:15;35.22;;;20.67;;
11962;SDS011;62678;52.130;5.584;2023-07-22T06:56:42;34.95;;;20.80;;
11962;SDS011;62678;52.130;5.584;2023-07-22T06:59:09;34.92;;;21.27;;
11962;SDS011;62678;52.130;5.584;2023-07-22T07:01:36;36.83;;;21.50;;
11962;SDS011;62678;52.130;5.584;2023-07-22T07:04:03;34.80;;;21.08;;
11962;SDS011;62678;52.130;5.584;2023-07-22T07:06:30;32.70;;;20.00;;
11962;SDS011;62678;52.130;5.584;2023-07-22T07:09:00;38.10;;;21.02;;
11962;SDS011;62678;52.130;5.584;2023-07-22T07:11:27;34.00;;;19.98;;
11962;SDS011;62678;52.130;5.584;2023-07-22T07:13:55;34.10;;;19.02;;
11962;SDS011;62678;52.130;5.584;2023-07-22T07:16:23;32.38;;;19.23;;
11962;SDS011;62678;52.130;5.584;2023-07-22T07:18:51;30.27;;;18.90;;
11962;SDS011;62678;52.130;5.584;2023-07-22T07:21:19;33.45;;;20.00;;
11962;SDS011;62678;52.130;5.584;2023-07-22T07:23:47;30.52;;;19.15;;
11962;SDS011;62678;52.130;5.584;2023-07-22T07:26:15;28.23;;;18.50;;
11962;SDS011;62678;52.130;5.584;2023-07-22T07:28:42;28.02;;;17.48;;
11962;SDS011;62678;52.130;5.584;2023-07-22T07:31:09;30.40;;;18.17;;
11962;SDS011;62678;52.130;5.584;2023-07-22T07:33:36;27.30;;;18.60;;
11962;SDS011;62678;52.130;5.584;2023-07-22T07:36:04;29.88;;;18.05;;
11962;SDS011;62678;52.130;5.584;2023-07-22T07:38:31;32.03;;;18.42;;
11962;SDS011;62678;52.130;5.584;2023-07-22T07:40:58;31.98;;;17.73;;
11962;SDS011;62678;52.130;5.584;2023-07-22T07:43:27;27.38;;;16.85;;
11962;SDS011;62678;52.130;5.584;2023-07-22T07:48:42;25.25;;;16.80;;
11962;SDS011;62678;52.130;5.584;2023-07-22T07:51:09;26.33;;;16.05;;
11962;SDS011;62678;52.130;5.584;2023-07-22T07:53:38;24.70;;;15.50;;
11962;SDS011;62678;52.130;5.584;2023-07-22T07:56:05;25.38;;;16.20;;
11962;SDS011;62678;52.130;5.584;2023-07-22T07:58:33;23.90;;;15.20;;
11962;SDS011;62678;52.130;5.584;2023-07-22T08:01:00;22.63;;;14.82;;
11962;SDS011;62678;52.130;5.584;2023-07-22T08:03:27;27.80;;;15.13;;
11962;SDS011;62678;52.130;5.584;2023-07-22T08:05:54;23.85;;;14.88;;
11962;SDS011;62678;52.130;5.584;2023-07-22T08:08:22;26.05;;;14.82;;
11962;SDS011;62678;52.130;5.584;2023-07-22T08:10:56;24.15;;;14.07;;
11962;SDS011;62678;52.130;5.584;2023-07-22T08:13:25;20.35;;;13.35;;
11962;SDS011;62678;52.130;5.584;2023-07-22T08:15:54;22.83;;;14.10;;
11962;SDS011;62678;52.130;5.584;2023-07-22T08:18:21;18.75;;;13.07;;
11962;SDS011;62678;52.130;5.584;2023-07-22T08:20:49;19.65;;;12.30;;
11962;SDS011;62678;52.130;5.584;2023-07-22T08:23:17;19.02;;;12.00;;
11962;SDS011;62678;52.130;5.584;2023-07-22T08:25:44;19.58;;;11.98;;
11962;SDS011;62678;52.130;5.584;2023-07-22T08:28:11;20.77;;;12.77;;
11962;SDS011;62678;52.130;5.584;2023-07-22T08:30:38;18.25;;;12.38;;
11962;SDS011;62678;52.130;5.584;2023-07-22T08:33:09;17.20;;;11.35;;
11962;SDS011;62678;52.130;5.584;2023-07-22T08:35:36;18.13;;;11.23;;
11962;SDS011;62678;52.130;5.584;2023-07-22T08:38:04;16.20;;;10.48;;
11962;SDS011;62678;52.130;5.584;2023-07-22T08:40:35;16.38;;;11.05;;
11962;SDS011;62678;52.130;5.584;2023-07-22T08:43:03;15.57;;;10.52;;
11962;SDS011;62678;52.130;5.584;2023-07-22T08:45:32;16.77;;;9.82;;
11962;SDS011;62678;52.130;5.584;2023-07-22T08:48:02;15.82;;;9.00;;
11962;SDS011;62678;52.130;5.584;2023-07-22T08:50:34;13.32;;;8.85;;
11962;SDS011;62678;52.130;5.584;2023-07-22T08:53:12;12.27;;;7.78;;
11962;SDS011;62678;52.130;5.584;2023-07-22T08:55:39;13.65;;;7.75;;
11962;SDS011;62678;52.130;5.584;2023-07-22T08:58:07;11.68;;;7.93;;
11962;SDS011;62678;52.130;5.584;2023-07-22T09:00:35;15.63;;;7.32;;
11962;SDS011;62678;52.130;5.584;2023-07-22T09:03:02;13.13;;;8.18;;
11962;SDS011;62678;52.130;5.584;2023-07-22T09:05:31;12.10;;;7.35;;
11962;SDS011;62678;52.130;5.584;2023-07-22T09:08:01;11.38;;;6.85;;
11962;SDS011;62678;52.130;5.584;2023-07-22T09:10:29;12.40;;;7.53;;
11962;SDS011;62678;52.130;5.584;2023-07-22T09:12:56;11.60;;;7.25;;
11962;SDS011;62678;52.130;5.584;2023-07-22T09:15:25;9.68;;;6.88;;
11962;SDS011;62678;52.130;5.584;2023-07-22T09:17:53;12.85;;;6.35;;
11962;SDS011;62678;52.130;5.584;2023-07-22T09:20:20;8.48;;;5.93;;
11962;SDS011;62678;52.130;5.584;2023-07-22T09:22:48;11.02;;;6.80;;
11962;SDS011;62678;52.130;5.584;2023-07-22T09:25:18;9.75;;;6.80;;
11962;SDS011;62678;52.130;5.584;2023-07-22T09:27:47;12.63;;;6.95;;
11962;SDS011;62678;52.130;5.584;2023-07-22T09:30:24;11.98;;;6.28;;
11962;SDS011;62678;52.130;5.584;2023-07-22T09:32:52;9.98;;;5.72;;
11962;SDS011;62678;52.130;5.584;2023-07-22T09:35:21;9.52;;;6.20;;
11962;SDS011;62678;52.130;5.584;2023-07-22T09:37:48;8.70;;;5.57;;
11962;SDS011;62678;52.130;5.584;2023-07-22T09:40:17;9.07;;;5.78;;
11962;SDS011;62678;52.130;5.584;2023-07-22T09:42:46;9.10;;;5.75;;
11962;SDS011;62678;52.130;5.584;2023-07-22T09:45:14;7.50;;;5.28;;
11962;SDS011;62678;52.130;5.584;2023-07-22T09:47:42;8.00;;;4.90;;
11962;SDS011;62678;52.130;5.584;2023-07-22T09:50:10;9.32;;;5.28;;
11962;SDS011;62678;52.130;5.584;2023-07-22T09:52:45;7.00;;;4.28;;
11962;SDS011;62678;52.130;5.584;2023-07-22T09:55:15;7.50;;;5.40;;
11962;SDS011;62678;52.130;5.584;2023-07-22T09:57:45;9.95;;;6.10;;
11962;SDS011;62678;52.130;5.584;2023-07-22T10:00:16;9.45;;;5.55;;
11962;SDS011;62678;52.130;5.584;2023-07-22T10:02:46;11.65;;;6.18;;
11962;SDS011;62678;52.130;5.584;2023-07-22T10:05:15;9.38;;;6.28;;
11962;SDS011;62678;52.130;5.584;2023-07-22T10:07:43;9.48;;;5.57;;
11962;SDS011;62678;52.130;5.584;2023-07-22T10:10:12;10.63;;;6.80;;
11962;SDS011;62678;52.130;5.584;2023-07-22T10:12:41;9.32;;;6.05;;
11962;SDS011;62678;52.130;5.584;2023-07-22T10:15:11;10.13;;;6.47;;
11962;SDS011;62678;52.130;5.584;2023-07-22T10:17:40;11.77;;;6.65;;
11962;SDS011;62678;52.130;5.584;2023-07-22T10:20:08;10.90;;;6.75;;
11962;SDS011;62678;52.130;5.584;2023-07-22T10:22:40;11.82;;;7.20;;
11962;SDS011;62678;52.130;5.584;2023-07-22T10:25:08;10.60;;;6.68;;
11962;SDS011;62678;52.130;5.584;2023-07-22T10:27:38;10.73;;;6.72;;
11962;SDS011;62678;52.130;5.584;2023-07-22T10:30:07;10.43;;;6.72;;
11962;SDS011;62678;52.130;5.584;2023-07-22T10:32:37;13.38;;;7.15;;
11962;SDS011;62678;52.130;5.584;2023-07-22T10:35:08;11.57;;;6.97;;
11962;SDS011;62678;52.130;5.584;2023-07-22T10:37:36;10.32;;;6.72;;
11962;SDS011;62678;52.130;5.584;2023-07-22T10:40:16;12.55;;;6.30;;
11962;SDS011;62678;52.130;5.584;2023-07-22T10:42:50;9.18;;;6.07;;
11962;SDS011;62678;52.130;5.584;2023-07-22T10:45:26;12.88;;;5.85;;
11962;SDS011;62678;52.130;5.584;2023-07-22T10:48:02;9.30;;;5.72;;
11962;SDS011;62678;52.130;5.584;2023-07-22T10:50:39;8.25;;;5.70;;
11962;SDS011;62678;52.130;5.584;2023-07-22T10:53:09;10.55;;;5.78;;
11962;SDS011;62678;52.130;5.584;2023-07-22T10:58:30;9.95;;;5.32;;
11962;SDS011;62678;52.130;5.584;2023-07-22T11:04:07;10.00;;;5.20;;
11962;SDS011;62678;52.130;5.584;2023-07-22T11:06:37;7.90;;;5.28;;
11962;SDS011;62678;52.130;5.584;2023-07-22T11:09:07;11.73;;;5.40;;
11962;SDS011;62678;52.130;5.584;2023-07-22T11:12:12;10.65;;;5.25;;
11962;SDS011;62678;52.130;5.584;2023-07-22T11:14:45;10.10;;;5.95;;
11962;SDS011;62678;52.130;5.584;2023-07-22T11:17:13;8.23;;;5.43;;
11962;SDS011;62678;52.130;5.584;2023-07-22T11:19:41;10.27;;;5.88;;
11962;SDS011;62678;52.130;5.584;2023-07-22T11:22:08;9.63;;;5.75;;
11962;SDS011;62678;52.130;5.584;2023-07-22T11:24:38;7.88;;;6.03;;
11962;SDS011;62678;52.130;5.584;2023-07-22T11:27:06;12.18;;;5.88;;
11962;SDS011;62678;52.130;5.584;2023-07-22T11:29:34;7.28;;;5.25;;
11962;SDS011;62678;52.130;5.584;2023-07-22T11:32:01;10.40;;;5.43;;
11962;SDS011;62678;52.130;5.584;2023-07-22T11:34:29;9.18;;;5.20;;
11962;SDS011;62678;52.130;5.584;2023-07-22T11:36:58;8.75;;;5.35;;
11962;SDS011;62678;52.130;5.584;2023-07-22T11:39:25;8.10;;;5.38;;
11962;SDS011;62678;52.130;5.584;2023-07-22T11:41:56;10.52;;;5.35;;
11962;SDS011;62678;52.130;5.584;2023-07-22T11:44:28;8.13;;;4.90;;
11962;SDS011;62678;52.130;5.584;2023-07-22T11:46:57;9.98;;;5.07;;
11962;SDS011;62678;52.130;5.584;2023-07-22T11:49:25;8.48;;;4.93;;
11962;SDS011;62678;52.130;5.584;2023-07-22T11:51:54;9.10;;;5.50;;
11962;SDS011;62678;52.130;5.584;2023-07-22T11:54:23;6.30;;;4.88;;
11962;SDS011;62678;52.130;5.584;2023-07-22T11:56:50;7.80;;;5.07;;
11962;SDS011;62678;52.130;5.584;2023-07-22T11:59:17;8.93;;;4.95;;
11962;SDS011;62678;52.130;5.584;2023-07-22T12:01:59;9.23;;;5.50;;
11962;SDS011;62678;52.130;5.584;2023-07-22T12:04:27;7.60;;;4.50;;
11962;SDS011;62678;52.130;5.584;2023-07-22T12:06:54;8.65;;;4.70;;
11962;SDS011;62678;52.130;5.584;2023-07-22T12:09:22;9.85;;;5.20;;
11962;SDS011;62678;52.130;5.584;2023-07-22T12:11:49;8.93;;;5.22;;
11962;SDS011;62678;52.130;5.584;2023-07-22T12:14:22;12.52;;;5.57;;
11962;SDS011;62678;52.130;5.584;2023-07-22T12:16:52;9.52;;;6.35;;
11962;SDS011;62678;52.130;5.584;2023-07-22T12:19:22;9.82;;;6.68;;
11962;SDS011;62678;52.130;5.584;2023-07-22T12:21:49;9.63;;;7.88;;
11962;SDS011;62678;52.130;5.584;2023-07-22T12:24:16;10.13;;;7.47;;
11962;SDS011;62678;52.130;5.584;2023-07-22T12:26:45;9.98;;;7.93;;
11962;SDS011;62678;52.130;5.584;2023-07-22T12:29:12;11.95;;;6.38;;
11962;SDS011;62678;52.130;5.584;2023-07-22T12:31:39;11.50;;;7.90;;
11962;SDS011;62678;52.130;5.584;2023-07-22T12:34:06;13.73;;;7.55;;
11962;SDS011;62678;52.130;5.584;2023-07-22T12:36:34;11.95;;;8.15;;
11962;SDS011;62678;52.130;5.584;2023-07-22T12:39:01;13.13;;;7.90;;
11962;SDS011;62678;52.130;5.584;2023-07-22T12:41:28;9.18;;;6.43;;
11962;SDS011;62678;52.130;5.584;2023-07-22T12:43:56;6.65;;;5.43;;
11962;SDS011;62678;52.130;5.584;2023-07-22T12:46:23;7.10;;;4.93;;
11962;SDS011;62678;52.130;5.584;2023-07-22T12:48:51;5.18;;;4.63;;
11962;SDS011;62678;52.130;5.584;2023-07-22T12:51:18;7.07;;;4.75;;
11962;SDS011;62678;52.130;5.584;2023-07-22T12:53:45;8.88;;;5.47;;
11962;SDS011;62678;52.130;5.584;2023-07-22T12:56:12;7.53;;;5.40;;
11962;SDS011;62678;52.130;5.584;2023-07-22T12:58:39;9.88;;;5.30;;
11962;SDS011;62678;52.130;5.584;2023-07-22T13:01:08;7.45;;;5.47;;
11962;SDS011;62678;52.130;5.584;2023-07-22T13:03:35;11.13;;;5.75;;
11962;SDS011;62678;52.130;5.584;2023-07-22T13:06:02;8.88;;;5.65;;
11962;SDS011;62678;52.130;5.584;2023-07-22T13:08:29;8.32;;;5.68;;
11962;SDS011;62678;52.130;5.584;2023-07-22T13:10:56;7.43;;;5.30;;
11962;SDS011;62678;52.130;5.584;2023-07-22T13:13:24;7.82;;;5.70;;
11962;SDS011;62678;52.130;5.584;2023-07-22T13:15:51;9.07;;;5.35;;
11962;SDS011;62678;52.130;5.584;2023-07-22T13:18:19;8.73;;;5.93;;
11962;SDS011;62678;52.130;5.584;2023-07-22T13:20:46;11.50;;;6.50;;
11962;SDS011;62678;52.130;5.584;2023-07-22T13:23:13;13.85;;;6.20;;
11962;SDS011;62678;52.130;5.584;2023-07-22T13:25:40;10.57;;;6.53;;
11962;SDS011;62678;52.130;5.584;2023-07-22T13:28:07;6.57;;;5.38;;
11962;SDS011;62678;52.130;5.584;2023-07-22T13:30:33;9.20;;;6.30;;
11962;SDS011;62678;52.130;5.584;2023-07-22T13:33:00;7.75;;;6.85;;
11962;SDS011;62678;52.130;5.584;2023-07-22T13:35:29;7.43;;;6.55;;
11962;SDS011;62678;52.130;5.584;2023-07-22T13:37:56;10.85;;;6.38;;
11962;SDS011;62678;52.130;5.584;2023-07-22T13:40:23;12.68;;;6.15;;
11962;SDS011;62678;52.130;5.584;2023-07-22T13:42:50;7.88;;;5.45;;
11962;SDS011;62678;52.130;5.584;2023-07-22T13:45:17;9.75;;;5.40;;
11962;SDS011;62678;52.130;5.584;2023-07-22T13:47:44;7.85;;;4.35;;
11962;SDS011;62678;52.130;5.584;2023-07-22T13:50:11;7.68;;;4.53;;
11962;SDS011;62678;52.130;5.584;2023-07-22T13:52:39;9.05;;;4.40;;
11962;SDS011;62678;52.130;5.584;2023-07-22T13:55:08;6.57;;;3.85;;
11962;SDS011;62678;52.130;5.584;2023-07-22T13:57:35;7.07;;;4.40;;
11962;SDS011;62678;52.130;5.584;2023-07-22T14:00:02;10.25;;;4.65;;
11962;SDS011;62678;52.130;5.584;2023-07-22T14:02:33;8.63;;;4.43;;
11962;SDS011;62678;52.130;5.584;2023-07-22T14:05:00;10.27;;;4.40;;
11962;SDS011;62678;52.130;5.584;2023-07-22T14:07:28;7.78;;;3.85;;
11962;SDS011;62678;52.130;5.584;2023-07-22T14:09:56;8.15;;;3.78;;
11962;SDS011;62678;52.130;5.584;2023-07-22T14:12:23;7.07;;;3.30;;
11962;SDS011;62678;52.130;5.584;2023-07-22T14:14:50;8.80;;;3.50;;
11962;SDS011;62678;52.130;5.584;2023-07-22T14:17:17;6.65;;;3.33;;
11962;SDS011;62678;52.130;5.584;2023-07-22T14:19:44;6.60;;;3.42;;
11962;SDS011;62678;52.130;5.584;2023-07-22T14:22:11;6.13;;;2.85;;
11962;SDS011;62678;52.130;5.584;2023-07-22T14:24:38;6.22;;;2.97;;
11962;SDS011;62678;52.130;5.584;2023-07-22T14:27:07;5.03;;;2.70;;
11962;SDS011;62678;52.130;5.584;2023-07-22T14:29:34;7.00;;;4.50;;
11962;SDS011;62678;52.130;5.584;2023-07-22T14:32:01;5.03;;;3.65;;
11962;SDS011;62678;52.130;5.584;2023-07-22T14:34:28;6.85;;;4.20;;
11962;SDS011;62678;52.130;5.584;2023-07-22T14:36:55;6.50;;;3.40;;
11962;SDS011;62678;52.130;5.584;2023-07-22T14:39:22;10.85;;;3.95;;
11962;SDS011;62678;52.130;5.584;2023-07-22T14:41:52;11.85;;;5.25;;
11962;SDS011;62678;52.130;5.584;2023-07-22T14:44:21;8.50;;;4.38;;